createdAt,value
2023-05-21T00:00:56.101Z,4.70
2023-05-21T00:03:41.989Z,4.70
2023-05-21T00:06:09.960Z,4.60
2023-05-21T00:08:38.359Z,4.70
2023-05-21T00:11:06.691Z,4.30
2023-05-21T00:13:34.494Z,4.60
2023-05-21T00:16:02.388Z,4.60
2023-05-21T00:18:32.298Z,4.80
2023-05-21T00:24:15.813Z,4.80
2023-05-21T00:26:44.629Z,4.70
2023-05-21T00:29:12.466Z,4.60
2023-05-21T00:31:41.185Z,5.30
2023-05-21T00:34:09.049Z,5.00
2023-05-21T00:36:36.896Z,5.00
2023-05-21T00:39:05.215Z,4.70
2023-05-21T00:41:35.734Z,4.90
2023-05-21T00:44:03.503Z,4.60
2023-05-21T00:46:31.608Z,4.60
2023-05-21T00:49:01.030Z,4.80
2023-05-21T00:51:30.479Z,4.30
2023-05-21T00:53:59.079Z,4.50
2023-05-21T00:56:27.649Z,4.40
2023-05-21T00:58:57.520Z,4.80
2023-05-21T01:01:34.460Z,4.70
2023-05-21T01:04:03.127Z,4.80
2023-05-21T01:06:34.691Z,4.40
2023-05-21T01:09:05.467Z,4.40
2023-05-21T01:12:00.976Z,4.60
2023-05-21T01:14:31.361Z,4.90
2023-05-21T01:17:02.376Z,4.60
2023-05-21T01:19:32.936Z,4.60
2023-05-21T01:22:05.329Z,4.90
2023-05-21T01:24:33.794Z,4.90
2023-05-21T01:27:03.669Z,4.50
2023-05-21T01:29:31.852Z,4.70
2023-05-21T01:32:11.613Z,4.60
2023-05-21T01:34:54.001Z,4.60
2023-05-21T01:37:30.138Z,4.70
2023-05-21T01:40:06.101Z,4.80
2023-05-21T01:42:37.669Z,4.80
2023-05-21T01:45:08.028Z,4.80
2023-05-21T01:47:37.490Z,5.00
2023-05-21T01:50:06.905Z,4.60
2023-05-21T01:52:35.489Z,4.90
2023-05-21T01:55:06.003Z,5.00
2023-05-21T01:57:33.772Z,5.10
2023-05-21T02:00:03.383Z,4.90
2023-05-21T02:02:31.262Z,4.80
2023-05-21T02:05:00.513Z,5.10
2023-05-21T02:07:29.263Z,5.50
2023-05-21T02:09:57.292Z,5.40
2023-05-21T02:12:26.101Z,5.20
2023-05-21T02:14:54.444Z,4.90
2023-05-21T02:17:24.438Z,5.00
2023-05-21T02:19:52.434Z,5.10
2023-05-21T02:22:20.776Z,4.90
2023-05-21T02:24:49.328Z,5.20
2023-05-21T02:27:17.825Z,4.80
2023-05-21T02:29:46.218Z,5.10
2023-05-21T02:32:13.986Z,5.00
2023-05-21T02:34:43.993Z,5.00
2023-05-21T02:37:12.036Z,5.20
2023-05-21T02:39:39.877Z,5.30
2023-05-21T02:42:07.630Z,5.30
2023-05-21T02:44:35.594Z,5.30
2023-05-21T02:47:03.492Z,5.60
2023-05-21T02:49:31.349Z,5.30
2023-05-21T02:51:59.192Z,4.90
2023-05-21T02:54:27.050Z,5.30
2023-05-21T02:56:54.875Z,5.50
2023-05-21T02:59:22.992Z,5.30
2023-05-21T03:01:50.944Z,5.10
2023-05-21T03:04:21.984Z,5.50
2023-05-21T03:06:55.162Z,5.40
2023-05-21T03:09:23.075Z,5.50
2023-05-21T03:11:51.447Z,5.50
2023-05-21T03:14:19.480Z,4.90
2023-05-21T03:22:22.544Z,4.80
2023-05-21T03:24:50.431Z,5.00
2023-05-21T03:27:18.392Z,5.10
2023-05-21T03:29:46.317Z,5.30
2023-05-21T03:32:14.318Z,5.30
2023-05-21T03:34:42.359Z,5.40
2023-05-21T03:37:10.322Z,5.40
2023-05-21T03:39:38.199Z,5.70
2023-05-21T03:42:06.263Z,5.60
2023-05-21T03:50:56.150Z,5.10
2023-05-21T03:53:24.472Z,5.90
2023-05-21T03:55:55.449Z,13.30
2023-05-21T03:58:23.929Z,5.60
2023-05-21T04:00:51.683Z,4.60
2023-05-21T04:03:19.702Z,4.50
2023-05-21T04:05:47.627Z,4.90
2023-05-21T04:08:16.169Z,8.70
2023-05-21T04:10:44.296Z,4.40
2023-05-21T04:13:12.521Z,4.50
2023-05-21T04:15:40.404Z,4.00
2023-05-21T04:18:11.064Z,4.20
2023-05-21T04:20:50.475Z,4.00
2023-05-21T04:23:21.677Z,4.00
2023-05-21T04:29:05.131Z,4.10
2023-05-21T04:31:33.420Z,3.60
2023-05-21T04:34:01.730Z,3.60
2023-05-21T04:36:30.386Z,3.30
2023-05-21T04:38:58.348Z,3.70
2023-05-21T04:41:26.344Z,3.30
2023-05-21T04:43:55.487Z,3.60
2023-05-21T04:46:26.885Z,3.30
2023-05-21T04:48:58.150Z,3.00
2023-05-21T04:51:26.743Z,2.90
2023-05-21T04:53:54.755Z,2.90
2023-05-21T04:56:22.723Z,3.10
2023-05-21T04:58:56.682Z,24.80
2023-05-21T05:04:48.718Z,3.20
2023-05-21T05:08:50.750Z,2.90
2023-05-21T05:17:57.946Z,3.10
2023-05-21T05:20:25.691Z,3.20
2023-05-21T05:22:53.609Z,3.00
2023-05-21T05:25:21.263Z,2.80
2023-05-21T05:27:48.945Z,3.10
2023-05-21T05:30:16.670Z,2.70
2023-05-21T05:32:44.350Z,3.10
2023-05-21T05:35:12.640Z,2.50
2023-05-21T05:37:40.292Z,2.50
2023-05-21T05:40:08.472Z,3.00
2023-05-21T05:42:36.085Z,5.00
2023-05-21T05:45:04.074Z,2.90
2023-05-21T05:47:32.915Z,2.60
2023-05-21T05:50:00.712Z,2.60
2023-05-21T05:52:30.566Z,2.40
2023-05-21T05:54:58.302Z,2.30
2023-05-21T05:57:25.949Z,2.70
2023-05-21T05:59:54.865Z,2.30
2023-05-21T06:02:49.106Z,2.40
2023-05-21T06:05:17.246Z,2.40
2023-05-21T06:08:47.627Z,2.40
2023-05-21T06:11:17.189Z,2.20
2023-05-21T06:13:44.937Z,2.30
2023-05-21T06:16:13.164Z,8.50
2023-05-21T06:18:42.027Z,2.80
2023-05-21T06:21:08.590Z,2.70
2023-05-21T06:23:37.125Z,2.50
2023-05-21T06:26:04.123Z,2.40
2023-05-21T06:28:30.496Z,2.40
2023-05-21T06:31:01.621Z,2.10
2023-05-21T06:33:40.231Z,1.90
2023-05-21T06:36:33.421Z,2.20
2023-05-21T06:39:01.263Z,2.20
2023-05-21T06:41:29.284Z,2.30
2023-05-21T06:43:57.140Z,2.10
2023-05-21T06:46:25.203Z,2.20
2023-05-21T06:48:55.179Z,2.10
2023-05-21T06:51:23.133Z,2.10
2023-05-21T06:53:51.968Z,2.20
2023-05-21T06:56:22.230Z,2.00
2023-05-21T07:01:33.779Z,2.10
2023-05-21T07:04:02.410Z,2.10
2023-05-21T07:06:37.198Z,2.00
2023-05-21T07:09:06.646Z,2.10
2023-05-21T07:11:37.771Z,2.10
2023-05-21T07:14:09.889Z,2.00
2023-05-21T07:16:40.167Z,2.10
2023-05-21T07:19:09.089Z,2.20
2023-05-21T07:21:38.001Z,2.00
2023-05-21T07:24:10.404Z,1.90
2023-05-21T07:26:40.398Z,2.10
2023-05-21T07:29:19.268Z,2.00
2023-05-21T07:31:47.107Z,2.00
2023-05-21T07:34:15.256Z,2.20
2023-05-21T07:36:43.192Z,2.20
2023-05-21T07:39:11.572Z,2.20
2023-05-21T07:41:39.400Z,2.20
2023-05-21T07:44:08.373Z,1.90
2023-05-21T07:46:37.038Z,1.80
2023-05-21T07:49:04.850Z,1.90
2023-05-21T07:51:33.744Z,2.10
2023-05-21T07:54:05.167Z,2.20
2023-05-21T07:56:33.526Z,1.70
2023-05-21T07:59:02.446Z,1.80
2023-05-21T08:01:31.477Z,1.90
2023-05-21T08:04:18.366Z,1.90
2023-05-21T08:06:55.844Z,2.00
2023-05-21T08:09:26.175Z,1.70
2023-05-21T08:11:57.138Z,1.80
2023-05-21T08:14:25.388Z,2.10
2023-05-21T08:16:53.602Z,1.90
2023-05-21T08:19:21.467Z,1.70
2023-05-21T08:21:51.315Z,1.80
2023-05-21T08:24:21.018Z,1.70
2023-05-21T08:26:50.710Z,1.80
2023-05-21T08:29:18.473Z,2.10
2023-05-21T08:31:46.442Z,1.90
2023-05-21T08:34:14.436Z,1.90
2023-05-21T08:36:43.352Z,1.80
2023-05-21T08:39:11.292Z,1.90
2023-05-21T08:44:38.615Z,1.70
2023-05-21T08:47:10.432Z,1.80
2023-05-21T08:49:39.653Z,1.90
2023-05-21T08:52:08.222Z,1.90
2023-05-21T08:54:37.974Z,1.80
2023-05-21T08:57:22.170Z,2.10
2023-05-21T09:02:51.710Z,1.90
2023-05-21T09:05:20.823Z,1.80
2023-05-21T09:08:07.313Z,1.80
2023-05-21T09:10:41.650Z,2.20
2023-05-21T09:13:10.417Z,1.80
2023-05-21T09:15:39.302Z,1.90
2023-05-21T09:18:07.251Z,1.80
2023-05-21T09:20:35.232Z,1.90
2023-05-21T09:23:05.093Z,2.00
2023-05-21T09:25:33.375Z,1.90
2023-05-21T09:28:01.191Z,2.00
2023-05-21T09:30:31.166Z,1.70
2023-05-21T09:33:00.447Z,2.00
2023-05-21T09:35:28.433Z,1.90
2023-05-21T09:37:57.482Z,1.90
2023-05-21T09:40:25.337Z,2.70
2023-05-21T09:42:55.634Z,2.20
2023-05-21T09:45:29.788Z,2.20
2023-05-21T09:47:57.558Z,2.10
2023-05-21T09:50:27.919Z,2.10
2023-05-21T09:52:56.734Z,2.10
2023-05-21T09:55:26.678Z,2.30
2023-05-21T09:57:54.853Z,2.00
2023-05-21T10:00:25.646Z,2.10
2023-05-21T10:03:09.802Z,2.10
2023-05-21T10:05:39.240Z,2.30
2023-05-21T10:08:09.375Z,2.00
2023-05-21T10:10:39.208Z,1.90
2023-05-21T10:13:10.728Z,2.00
2023-05-21T10:15:43.904Z,2.10
2023-05-21T10:18:13.591Z,2.00
2023-05-21T10:20:41.904Z,2.00
2023-05-21T10:23:10.084Z,2.00
2023-05-21T10:25:38.393Z,2.00
2023-05-21T10:28:07.285Z,1.80
2023-05-21T10:30:37.418Z,1.90
2023-05-21T10:33:06.249Z,1.80
2023-05-21T10:35:35.088Z,2.20
2023-05-21T10:38:05.246Z,2.10
2023-05-21T10:40:36.180Z,2.00
2023-05-21T10:43:27.061Z,2.20
2023-05-21T10:46:39.778Z,2.00
2023-05-21T10:50:04.801Z,2.00
2023-05-21T10:52:34.641Z,2.10
2023-05-21T10:55:06.393Z,2.00
2023-05-21T10:58:24.993Z,2.00
2023-05-21T11:00:55.807Z,1.90
2023-05-21T11:03:26.094Z,2.10
2023-05-21T11:05:58.034Z,2.00
2023-05-21T11:08:28.452Z,1.90
2023-05-21T11:10:58.395Z,2.20
2023-05-21T11:13:50.929Z,2.20
2023-05-21T11:16:21.261Z,2.20
2023-05-21T11:18:56.668Z,1.90
2023-05-21T11:21:38.281Z,2.00
2023-05-21T11:24:07.899Z,2.10
2023-05-21T11:26:48.041Z,2.00
2023-05-21T11:29:18.925Z,1.80
2023-05-21T11:31:48.452Z,2.00
2023-05-21T11:34:32.522Z,2.00
2023-05-21T11:37:20.839Z,1.90
2023-05-21T11:39:51.735Z,2.10
2023-05-21T11:42:38.901Z,2.00
2023-05-21T11:45:07.402Z,1.90
2023-05-21T11:47:35.537Z,1.80
2023-05-21T11:50:04.501Z,2.00
2023-05-21T11:52:33.350Z,1.90
2023-05-21T11:55:01.624Z,2.10
2023-05-21T11:57:33.452Z,1.80
2023-05-21T12:00:16.462Z,2.00
2023-05-21T12:02:52.384Z,2.10
2023-05-21T12:05:24.116Z,1.90
2023-05-21T12:07:52.114Z,2.80
2023-05-21T12:10:24.426Z,2.20
2023-05-21T12:13:18.777Z,2.20
2023-05-21T12:16:26.915Z,2.10
2023-05-21T12:19:10.906Z,2.20
2023-05-21T12:21:40.437Z,2.30
2023-05-21T12:24:12.796Z,1.80
2023-05-21T12:26:42.197Z,2.00
2023-05-21T12:29:11.303Z,2.10
2023-05-21T12:31:49.746Z,1.70
2023-05-21T12:34:38.779Z,1.90
2023-05-21T12:37:11.419Z,1.80
2023-05-21T12:39:54.287Z,2.00
2023-05-21T12:42:31.453Z,2.00
2023-05-21T12:45:10.588Z,2.10
2023-05-21T12:47:40.234Z,1.80
2023-05-21T12:50:13.812Z,2.00
2023-05-21T12:52:47.931Z,2.10
2023-05-21T12:55:26.243Z,1.70
2023-05-21T12:58:08.027Z,1.90
2023-05-21T13:00:42.254Z,2.00
2023-05-21T13:03:26.927Z,1.60
2023-05-21T13:06:03.663Z,2.90
2023-05-21T13:08:35.855Z,2.40
2023-05-21T13:11:07.190Z,2.00
2023-05-21T13:13:35.223Z,2.00
2023-05-21T13:16:18.079Z,2.00
2023-05-21T13:18:50.815Z,1.90
2023-05-21T13:21:18.626Z,1.60
2023-05-21T13:23:46.812Z,1.90
2023-05-21T13:26:14.629Z,2.00
2023-05-21T13:28:42.941Z,1.80
2023-05-21T13:31:14.249Z,1.70
2023-05-21T13:33:42.688Z,1.70
2023-05-21T13:36:11.117Z,1.60
2023-05-21T13:38:38.780Z,1.80
2023-05-21T13:41:07.047Z,1.80
2023-05-21T13:43:35.607Z,1.60
2023-05-21T13:46:03.904Z,1.50
2023-05-21T13:48:31.985Z,1.70
2023-05-21T13:51:01.877Z,1.70
2023-05-21T13:53:30.051Z,2.10
2023-05-21T13:55:57.983Z,2.00
2023-05-21T13:58:28.119Z,1.70
2023-05-21T14:00:57.858Z,1.60
2023-05-21T14:03:27.557Z,2.00
2023-05-21T14:05:55.903Z,2.40
2023-05-21T14:08:24.927Z,2.20
2023-05-21T14:10:55.402Z,2.50
2023-05-21T14:13:23.119Z,2.10
2023-05-21T14:15:56.197Z,1.90
2023-05-21T14:18:30.617Z,2.50
2023-05-21T14:21:01.331Z,2.20
2023-05-21T14:23:29.723Z,1.70
2023-05-21T14:25:58.737Z,1.80
2023-05-21T14:28:30.661Z,1.70
2023-05-21T14:31:00.901Z,2.00
2023-05-21T14:33:32.192Z,1.90
2023-05-21T14:38:57.709Z,1.90
2023-05-21T14:41:40.695Z,1.90
2023-05-21T14:44:09.667Z,1.90
2023-05-21T14:46:39.604Z,1.70
2023-05-21T14:49:07.856Z,1.70
2023-05-21T14:51:35.655Z,1.90
2023-05-21T14:54:03.559Z,2.20
2023-05-21T14:56:31.259Z,2.10
2023-05-21T14:58:58.957Z,1.80
2023-05-21T15:01:26.882Z,2.10
2023-05-21T15:03:58.720Z,2.00
2023-05-21T15:06:26.532Z,1.80
2023-05-21T15:08:54.550Z,1.80
2023-05-21T15:11:22.426Z,1.90
2023-05-21T15:13:50.432Z,1.80
2023-05-21T15:16:19.724Z,1.80
2023-05-21T15:18:48.007Z,1.70
2023-05-21T15:21:16.007Z,1.90
2023-05-21T15:23:43.930Z,1.80
2023-05-21T15:26:11.630Z,2.00
2023-05-21T15:28:39.527Z,2.00
2023-05-21T15:31:07.336Z,1.90
2023-05-21T15:33:35.391Z,2.10
2023-05-21T15:36:03.303Z,2.80
2023-05-21T15:38:31.249Z,2.10
2023-05-21T15:40:59.056Z,1.80
2023-05-21T15:43:27.272Z,2.00
2023-05-21T15:45:55.061Z,2.00
2023-05-21T15:48:23.029Z,2.20
2023-05-21T15:50:50.828Z,1.80
2023-05-21T15:53:19.045Z,1.80
2023-05-21T15:55:46.786Z,2.00
2023-05-21T15:58:14.661Z,1.90
2023-05-21T16:00:42.489Z,2.20
2023-05-21T16:03:12.016Z,2.00
2023-05-21T16:05:39.828Z,2.20
2023-05-21T16:08:10.654Z,2.10
2023-05-21T16:10:40.148Z,2.10
2023-05-21T16:13:07.911Z,2.30
2023-05-21T16:15:36.152Z,2.70
2023-05-21T16:18:04.624Z,2.80
2023-05-21T16:20:33.583Z,2.20
2023-05-21T16:23:03.795Z,2.70
2023-05-21T16:25:31.717Z,2.50
2023-05-21T16:27:59.469Z,2.20
2023-05-21T16:30:29.702Z,2.60
2023-05-21T16:32:57.503Z,2.50
2023-05-21T16:35:25.998Z,2.50
2023-05-21T16:37:55.204Z,2.20
2023-05-21T16:40:23.225Z,2.50
2023-05-21T16:42:52.926Z,2.10
2023-05-21T16:45:21.542Z,2.20
2023-05-21T16:47:54.220Z,2.00
2023-05-21T16:50:23.040Z,2.10
2023-05-21T16:52:51.098Z,2.20
2023-05-21T16:55:18.804Z,2.00
2023-05-21T16:57:46.486Z,2.20
2023-05-21T17:00:14.600Z,2.20
2023-05-21T17:02:42.485Z,2.10
2023-05-21T17:05:10.358Z,2.10
2023-05-21T17:07:51.618Z,2.30
2023-05-21T17:10:19.993Z,2.10
2023-05-21T17:12:47.926Z,2.00
2023-05-21T17:15:15.769Z,2.20
2023-05-21T17:17:46.865Z,2.20
2023-05-21T17:23:43.349Z,2.40
2023-05-21T17:26:11.180Z,2.30
2023-05-21T17:28:38.884Z,2.60
2023-05-21T17:31:08.961Z,3.20
2023-05-21T17:33:37.629Z,2.70
2023-05-21T17:36:06.897Z,2.50
2023-05-21T17:38:34.620Z,2.60
2023-05-21T17:41:05.662Z,2.60
2023-05-21T17:43:33.725Z,2.50
2023-05-21T17:46:01.541Z,2.70
2023-05-21T17:48:29.423Z,2.40
2023-05-21T17:50:57.443Z,2.40
2023-05-21T17:53:26.037Z,2.40
2023-05-21T17:55:53.855Z,2.50
2023-05-21T17:58:21.589Z,2.30
2023-05-21T18:01:09.998Z,2.20
2023-05-21T18:04:04.999Z,2.40
2023-05-21T18:06:32.867Z,2.40
2023-05-21T18:09:54.318Z,2.30
2023-05-21T18:12:37.993Z,2.30
2023-05-21T18:15:06.595Z,2.60
2023-05-21T18:17:34.559Z,2.60
2023-05-21T18:20:04.333Z,2.70
2023-05-21T18:22:32.600Z,2.70
2023-05-21T18:25:11.743Z,2.40
2023-05-21T18:28:04.274Z,2.50
2023-05-21T18:31:00.528Z,2.80
2023-05-21T18:33:33.746Z,2.80
2023-05-21T18:36:01.581Z,2.70
2023-05-21T18:38:29.691Z,2.40
2023-05-21T18:40:57.454Z,2.60
2023-05-21T18:43:25.925Z,2.80
2023-05-21T18:45:55.529Z,2.50
2023-05-21T18:48:24.107Z,3.40
2023-05-21T18:50:56.899Z,2.70
2023-05-21T18:53:25.421Z,2.80
2023-05-21T18:55:53.264Z,3.20
2023-05-21T18:58:21.719Z,2.70
2023-05-21T19:00:49.727Z,2.70
2023-05-21T19:03:17.694Z,2.70
2023-05-21T19:05:45.607Z,3.10
2023-05-21T19:08:13.580Z,2.70
2023-05-21T19:10:41.667Z,2.80
2023-05-21T19:13:09.720Z,3.30
2023-05-21T19:15:37.758Z,2.90
2023-05-21T19:18:05.693Z,3.00
2023-05-21T19:20:33.560Z,3.30
2023-05-21T19:23:02.063Z,3.50
2023-05-21T19:25:31.502Z,3.30
2023-05-21T19:28:00.788Z,3.70
2023-05-21T19:30:28.452Z,3.50
2023-05-21T19:33:00.806Z,3.40
2023-05-21T19:35:28.778Z,3.70
2023-05-21T19:38:00.629Z,3.50
2023-05-21T19:40:30.362Z,3.70
2023-05-21T19:42:58.049Z,3.50
2023-05-21T19:45:26.674Z,3.60
2023-05-21T19:47:54.503Z,3.30
2023-05-21T19:50:22.230Z,3.60
2023-05-21T19:52:49.880Z,3.80
2023-05-21T19:55:20.062Z,3.70
2023-05-21T19:57:47.798Z,3.40
2023-05-21T20:00:16.973Z,3.40
2023-05-21T20:02:44.940Z,3.30
2023-05-21T20:05:12.908Z,3.60
2023-05-21T20:07:41.513Z,3.80
2023-05-21T20:10:09.356Z,3.80
2023-05-21T20:12:37.857Z,3.60
2023-05-21T20:15:06.919Z,3.70
2023-05-21T20:17:36.219Z,3.80
2023-05-21T20:20:09.946Z,3.50
2023-05-21T20:22:37.712Z,3.80
2023-05-21T20:25:07.589Z,3.70
2023-05-21T20:27:36.092Z,3.60
2023-05-21T20:30:07.281Z,3.80
2023-05-21T20:32:35.036Z,4.10
2023-05-21T20:35:03.956Z,3.70
2023-05-21T20:37:34.795Z,4.10
2023-05-21T20:40:02.474Z,4.00
2023-05-21T20:42:34.811Z,3.60
2023-05-21T20:45:04.191Z,4.10
2023-05-21T20:47:32.072Z,3.90
2023-05-21T20:50:02.763Z,4.20
2023-05-21T20:52:32.120Z,4.30
2023-05-21T20:54:59.939Z,4.30
2023-05-21T20:57:28.389Z,4.40
2023-05-21T20:59:56.712Z,4.40
2023-05-21T21:02:24.513Z,4.60
2023-05-21T21:04:53.916Z,4.70
2023-05-21T21:07:21.890Z,4.70
2023-05-21T21:09:49.592Z,4.60
2023-05-21T21:14:48.409Z,4.70
2023-05-21T21:17:16.235Z,5.10
2023-05-21T21:19:44.051Z,4.90
2023-05-21T21:22:11.846Z,5.10
2023-05-21T21:24:39.620Z,5.10
2023-05-21T21:27:07.451Z,5.00
2023-05-21T21:29:35.136Z,5.30
2023-05-21T21:32:02.851Z,5.60
2023-05-21T21:34:30.535Z,5.30
2023-05-21T21:36:58.194Z,4.90
2023-05-21T21:39:26.830Z,4.90
2023-05-21T21:41:54.796Z,4.70
2023-05-21T21:44:22.528Z,4.70
2023-05-21T21:46:50.378Z,4.90
2023-05-21T21:49:18.227Z,4.70
2023-05-21T21:51:46.219Z,4.80
2023-05-21T21:54:13.976Z,4.80
2023-05-21T21:56:41.725Z,4.60
2023-05-21T21:59:09.410Z,4.50
2023-05-21T22:01:37.403Z,5.00
2023-05-21T22:04:05.551Z,4.70
2023-05-21T22:06:33.327Z,4.50
2023-05-21T22:09:01.632Z,4.80
2023-05-21T22:11:29.398Z,4.50
2023-05-21T22:13:57.351Z,4.60
2023-05-21T22:16:25.154Z,5.30
2023-05-21T22:18:54.221Z,5.10
2023-05-21T22:21:27.075Z,4.70
2023-05-21T22:23:56.135Z,4.60
2023-05-21T22:26:23.852Z,4.60
2023-05-21T22:28:51.696Z,4.70
2023-05-21T22:31:19.476Z,4.90
2023-05-21T22:33:47.417Z,4.80
2023-05-21T22:36:15.100Z,4.90
2023-05-21T22:38:43.909Z,4.90
2023-05-21T22:41:11.722Z,4.50
2023-05-21T22:43:39.468Z,5.10
2023-05-21T22:46:08.125Z,4.70
2023-05-21T22:48:37.307Z,4.80
2023-05-21T22:51:05.741Z,4.80
2023-05-21T22:53:33.563Z,4.90
2023-05-21T22:56:01.342Z,4.60
2023-05-21T22:58:31.732Z,4.60
2023-05-21T23:00:59.547Z,4.80
2023-05-21T23:03:27.299Z,4.60
2023-05-21T23:05:55.022Z,4.80
2023-05-21T23:08:52.002Z,5.30
2023-05-21T23:11:19.740Z,4.90
2023-05-21T23:13:47.383Z,5.10
2023-05-21T23:16:15.064Z,4.80
2023-05-21T23:18:43.796Z,5.00
2023-05-21T23:21:11.574Z,5.00
2023-05-21T23:23:39.293Z,4.70
2023-05-21T23:26:07.136Z,4.70
2023-05-21T23:28:37.473Z,4.60
2023-05-21T23:31:06.179Z,4.80
2023-05-21T23:33:35.004Z,5.20
2023-05-21T23:36:03.078Z,5.20
2023-05-21T23:38:30.892Z,4.80
2023-05-21T23:40:58.951Z,4.80
2023-05-21T23:43:26.823Z,5.20
2023-05-21T23:45:55.033Z,4.90
2023-05-21T23:48:24.605Z,5.10
2023-05-21T23:50:52.613Z,4.70
2023-05-21T23:53:20.371Z,4.80
